Time;durP1;ratioP1;P1;durP2;ratioP2;P2;SDS_P1;SDS_P2;PMS_P1;PMS_P2;Temp;Humidity;BMP_temperature;BMP_pressure;BME280_temperature;BME280_humidity;BME280_pressure;Samples;Min_cycle;Max_cycle;Signal;HPM_P1;HPM_P2
2023/04/20 00:00:32;;;;;;;6.72;3.70;;;;;;;3.70;66.57;99576.03;5049457;28;20045;-58
2023/04/20 00:03:02;;;;;;;7.53;3.65;;;;;;;3.77;64.14;99571.59;5030819;28;20037;-59
2023/04/20 00:05:30;;;;;;;5.00;3.67;;;;;;;4.07;61.57;99565.16;5033480;28;20854;-59
2023/04/20 00:07:58;;;;;;;6.55;4.03;;;;;;;4.10;61.15;99570.06;5042878;28;20494;-59
2023/04/20 00:10:25;;;;;;;4.97;3.20;;;;;;;4.14;61.82;99567.03;5028227;28;20122;-58
2023/04/20 00:12:52;;;;;;;6.13;3.40;;;;;;;3.88;66.42;99563.13;5034532;28;20570;-58
2023/04/20 00:15:20;;;;;;;10.73;3.95;;;;;;;3.61;64.97;99559.41;5036787;28;20161;-59
2023/04/20 00:17:47;;;;;;;7.82;3.80;;;;;;;3.88;65.88;99560.50;5059182;28;20040;-58
2023/04/20 00:20:15;;;;;;;6.18;3.47;;;;;;;3.60;68.42;99547.19;5056112;28;20132;-58
2023/04/20 00:22:42;;;;;;;6.57;3.78;;;;;;;3.65;70.63;99545.59;5054494;28;20468;-58
2023/04/20 00:25:10;;;;;;;11.70;3.90;;;;;;;3.67;71.40;99532.97;5051586;28;20091;-59
2023/04/20 00:27:37;;;;;;;7.80;3.90;;;;;;;3.53;68.95;99531.22;5056651;28;20068;-59
2023/04/20 00:30:04;;;;;;;7.32;3.78;;;;;;;3.20;70.96;99533.53;5055875;28;20045;-59
2023/04/20 00:32:32;;;;;;;7.40;3.60;;;;;;;3.36;71.39;99535.13;5059409;28;20044;-58
2023/04/20 00:34:59;;;;;;;7.78;4.32;;;;;;;3.54;69.51;99526.72;5056619;28;20102;-58
2023/04/20 00:37:28;;;;;;;9.48;3.65;;;;;;;3.93;65.46;99526.25;5056382;28;20416;-58
2023/04/20 00:39:55;;;;;;;6.35;3.85;;;;;;;4.00;63.99;99526.31;5050671;28;20072;-59
2023/04/20 00:42:22;;;;;;;8.88;3.90;;;;;;;3.84;65.07;99522.09;5056915;28;20048;-58
2023/04/20 00:44:51;;;;;;;5.68;3.40;;;;;;;4.01;66.50;99517.34;5055997;28;20051;-59
2023/04/20 00:47:18;;;;;;;7.57;3.97;;;;;;;3.68;65.51;99508.09;5054009;28;20480;-58
2023/04/20 00:49:45;;;;;;;8.07;3.85;;;;;;;3.66;66.24;99511.94;5056784;28;20085;-59
2023/04/20 00:52:12;;;;;;;13.68;4.10;;;;;;;3.70;65.77;99504.47;5053449;28;20058;-58
2023/04/20 00:54:40;;;;;;;6.38;3.80;;;;;;;3.83;67.55;99499.25;5050138;28;20059;-58
2023/04/20 00:57:09;;;;;;;5.30;3.70;;;;;;;3.63;67.62;99494.59;5058214;28;20072;-59
2023/04/20 00:59:36;;;;;;;5.78;3.78;;;;;;;3.68;68.42;99494.84;5055604;28;20452;-58
2023/04/20 01:02:03;;;;;;;5.85;3.60;;;;;;;3.81;68.01;99490.66;5056340;28;20140;-59
2023/04/20 01:04:30;;;;;;;7.50;4.07;;;;;;;3.71;68.76;99474.28;5052946;28;20036;-58
2023/04/20 01:06:58;;;;;;;8.57;3.88;;;;;;;4.01;72.76;99472.25;5050500;28;20098;-59
2023/04/20 01:09:25;;;;;;;6.40;4.00;;;;;;;4.22;73.36;99466.03;5040696;28;20573;-58
2023/04/20 01:11:53;;;;;;;6.22;3.85;;;;;;;3.67;71.58;99464.06;5056363;28;20266;-59
2023/04/20 01:14:20;;;;;;;5.25;3.55;;;;;;;3.62;72.57;99461.16;5059255;28;20128;-58
2023/04/20 01:16:48;;;;;;;7.07;3.72;;;;;;;3.71;76.18;99458.38;5056506;28;20123;-58
2023/04/20 01:19:15;;;;;;;5.57;3.80;;;;;;;3.31;73.05;99455.38;5062247;28;20040;-59
2023/04/20 01:21:42;;;;;;;6.35;3.90;;;;;;;3.05;73.13;99459.41;5052840;28;20064;-58
2023/04/20 01:24:19;;;;;;;5.88;3.70;;;;;;;3.42;71.12;99441.59;5063351;28;20040;-59
2023/04/20 01:26:46;;;;;;;6.43;3.78;;;;;;;3.46;69.24;99445.53;5054610;28;20045;-59
2023/04/20 01:29:13;;;;;;;9.20;3.65;;;;;;;3.45;66.53;99438.59;5056088;28;20077;-59
2023/04/20 01:31:40;;;;;;;7.82;3.92;;;;;;;3.74;69.72;99436.75;5053842;28;20118;-59
2023/04/20 01:34:09;;;;;;;5.78;3.63;;;;;;;3.88;70.33;99439.31;5055325;28;20064;-59
2023/04/20 01:36:36;;;;;;;8.82;3.90;;;;;;;3.87;68.42;99432.38;5059980;28;20044;-59
2023/04/20 01:39:04;;;;;;;6.10;3.83;;;;;;;3.91;68.85;99432.81;5056306;28;20048;-59
2023/04/20 01:41:33;;;;;;;5.88;3.88;;;;;;;4.20;67.16;99431.75;5059108;28;20094;-58
2023/04/20 01:44:00;;;;;;;8.23;3.63;;;;;;;4.27;64.26;99431.81;5056727;28;20044;-59
2023/04/20 01:46:27;;;;;;;8.02;3.83;;;;;;;4.20;66.27;99433.59;5056976;28;20032;-58
2023/04/20 01:48:54;;;;;;;7.05;3.55;;;;;;;3.98;65.26;99431.03;5058942;28;20033;-58
2023/04/20 01:51:21;;;;;;;10.00;3.88;;;;;;;3.97;65.70;99425.91;5058732;28;20045;-58
2023/04/20 01:53:48;;;;;;;10.95;3.83;;;;;;;3.92;65.33;99423.84;5050972;28;20051;-58
2023/04/20 01:56:15;;;;;;;7.78;3.90;;;;;;;3.96;65.60;99425.09;5057251;28;20470;-59
2023/04/20 01:58:44;;;;;;;8.05;3.70;;;;;;;4.10;64.24;99432.13;5054398;28;20127;-59
2023/04/20 02:01:11;;;;;;;9.05;3.83;;;;;;;4.24;63.15;99427.72;5055733;28;20057;-58
2023/04/20 02:03:38;;;;;;;5.53;3.40;;;;;;;4.41;65.70;99430.03;5055075;28;20078;-58
2023/04/20 02:06:06;;;;;;;7.78;4.32;;;;;;;4.37;63.48;99426.13;5056705;28;20227;-58
2023/04/20 02:08:36;;;;;;;5.95;4.00;;;;;;;4.33;63.83;99423.88;5062531;28;20102;-58
2023/04/20 02:11:03;;;;;;;6.80;3.72;;;;;;;4.39;63.03;99413.47;5060688;28;20044;-58
2023/04/20 02:13:30;;;;;;;9.93;3.90;;;;;;;4.34;63.96;99419.38;5056975;28;20084;-58
2023/04/20 02:15:58;;;;;;;8.75;4.07;;;;;;;4.38;63.42;99423.28;5056620;28;20515;-59
2023/04/20 02:18:25;;;;;;;8.27;4.13;;;;;;;4.38;63.67;99412.66;5051875;28;20126;-58
2023/04/20 02:20:52;;;;;;;11.77;4.35;;;;;;;4.42;63.16;99413.91;5061366;28;20476;-59
2023/04/20 02:23:19;;;;;;;7.22;3.95;;;;;;;4.36;63.03;99412.03;5056451;28;20106;-59
2023/04/20 02:25:46;;;;;;;7.78;4.03;;;;;;;4.50;62.23;99415.56;5054276;28;20040;-58
2023/04/20 02:28:13;;;;;;;7.22;3.63;;;;;;;4.69;62.03;99414.00;5052015;28;20067;-59
2023/04/20 02:30:40;;;;;;;6.00;3.28;;;;;;;4.63;63.20;99414.81;5056011;28;20491;-58
2023/04/20 02:33:09;;;;;;;5.88;3.80;;;;;;;4.57;64.58;99405.81;5054762;28;20098;-58
2023/04/20 02:35:36;;;;;;;8.38;4.25;;;;;;;4.56;65.77;99406.81;5055628;28;20441;-58
2023/04/20 02:38:03;;;;;;;6.93;3.70;;;;;;;4.55;66.80;99407.84;5055409;28;20033;-58
2023/04/20 02:40:30;;;;;;;6.97;3.53;;;;;;;4.46;68.18;99409.00;5058579;28;20557;-60
2023/04/20 02:42:57;;;;;;;7.78;3.97;;;;;;;4.47;71.01;99411.47;5057874;28;20118;-58
2023/04/20 02:45:25;;;;;;;6.50;4.13;;;;;;;4.37;72.85;99400.41;5055859;28;20135;-58
2023/04/20 02:47:52;;;;;;;5.38;3.30;;;;;;;4.35;74.13;99407.75;5055101;28;20094;-58
2023/04/20 02:50:21;;;;;;;6.75;4.18;;;;;;;4.31;75.11;99401.19;5059427;28;20099;-57
2023/04/20 02:53:17;;;;;;;5.95;4.13;;;;;;;4.20;76.10;99407.88;5041101;28;20479;-58
2023/04/20 02:55:48;;;;;;;6.70;3.70;;;;;;;4.17;77.91;99395.03;5056939;28;20049;-58
2023/04/20 02:58:25;;;;;;;7.75;3.85;;;;;;;4.13;78.41;99396.41;5058669;28;20045;-58
2023/04/20 03:01:11;;;;;;;12.40;4.82;;;;;;;4.10;79.67;99394.97;5054581;28;20175;-60
2023/04/20 03:03:39;;;;;;;8.30;5.22;;;;;;;3.99;81.12;99397.34;5062673;28;20072;-58
2023/04/20 03:06:11;;;;;;;7.20;4.78;;;;;;;4.03;81.89;99383.50;5057135;28;20364;-58
2023/04/20 03:08:41;;;;;;;10.07;5.38;;;;;;;3.98;82.26;99383.28;5059011;28;20044;-58
2023/04/20 03:11:46;;;;;;;10.13;5.13;;;;;;;3.99;82.98;99386.75;5017644;28;20042;-58
2023/04/20 03:14:22;;;;;;;8.68;5.35;;;;;;;3.93;84.00;99372.44;5022245;28;20049;-58
2023/04/20 03:16:49;;;;;;;9.43;5.38;;;;;;;3.96;85.45;99377.34;5032088;28;20463;-58
2023/04/20 03:19:19;;;;;;;10.88;5.70;;;;;;;3.96;85.61;99377.34;5053778;28;20534;-58
2023/04/20 03:21:48;;;;;;;9.35;5.30;;;;;;;4.04;86.10;99376.38;5058690;28;20068;-58
2023/04/20 03:24:15;;;;;;;10.75;6.00;;;;;;;3.96;86.74;99377.34;5066689;28;20045;-58
2023/04/20 03:26:42;;;;;;;11.98;5.82;;;;;;;3.91;88.31;99377.13;5051982;28;20047;-58
2023/04/20 03:29:18;;;;;;;9.40;5.45;;;;;;;4.02;88.34;99375.75;5054393;28;20048;-58
2023/04/20 03:31:45;;;;;;;8.48;5.18;;;;;;;3.99;89.01;99371.66;5054652;28;20272;-58
2023/04/20 03:34:12;;;;;;;8.68;5.55;;;;;;;3.96;89.09;99372.03;5059213;28;20103;-58
2023/04/20 03:36:40;;;;;;;9.55;5.60;;;;;;;3.96;91.21;99376.53;5053679;28;20059;-58
2023/04/20 03:39:08;;;;;;;10.70;5.70;;;;;;;4.03;90.09;99366.78;5058232;28;20048;-58
2023/04/20 03:41:35;;;;;;;9.52;5.57;;;;;;;3.91;92.52;99369.16;5051437;28;20483;-58
2023/04/20 03:44:02;;;;;;;7.97;5.63;;;;;;;3.85;92.76;99370.78;5058521;28;20037;-58
2023/04/20 03:46:30;;;;;;;10.05;5.60;;;;;;;3.89;93.15;99364.06;5059924;28;20045;-58
2023/04/20 03:48:57;;;;;;;9.55;5.53;;;;;;;3.90;94.01;99370.19;5050017;28;20064;-59
2023/04/20 03:51:24;;;;;;;9.38;5.47;;;;;;;3.72;95.27;99365.41;5052608;28;20040;-58
2023/04/20 03:53:51;;;;;;;11.00;6.07;;;;;;;3.64;95.58;99366.38;5058692;28;20508;-59
2023/04/20 03:56:20;;;;;;;10.55;5.93;;;;;;;3.70;94.18;99361.31;5058306;28;20547;-59
2023/04/20 03:58:48;;;;;;;9.13;5.50;;;;;;;3.78;94.60;99358.50;5054347;28;20139;-59
2023/04/20 04:01:19;;;;;;;10.57;6.03;;;;;;;3.73;94.88;99356.41;5055339;28;20055;-59
2023/04/20 04:03:49;;;;;;;9.18;6.05;;;;;;;3.63;96.25;99362.06;5058145;28;20033;-59
2023/04/20 04:06:17;;;;;;;12.25;6.57;;;;;;;3.60;97.11;99364.31;5052025;28;20047;-59
2023/04/20 04:08:44;;;;;;;12.10;6.53;;;;;;;3.55;99.17;99358.75;5053966;28;20048;-59
2023/04/20 04:11:14;;;;;;;13.35;6.03;;;;;;;3.61;100.00;99360.63;5060156;28;20151;-59
2023/04/20 04:13:43;;;;;;;12.60;7.07;;;;;;;3.50;100.00;99354.03;5059312;28;20037;-59
2023/04/20 04:16:10;;;;;;;9.85;6.65;;;;;;;3.52;99.28;99359.13;5052104;28;20442;-58
2023/04/20 04:18:38;;;;;;;11.48;6.60;;;;;;;3.51;99.79;99358.31;5058087;28;20143;-59
2023/04/20 04:21:10;;;;;;;12.93;6.35;;;;;;;3.54;96.48;99363.22;5050097;28;20574;-59
2023/04/20 04:23:38;;;;;;;8.32;5.85;;;;;;;3.57;96.99;99359.38;5050075;28;20136;-59
2023/04/20 04:26:30;;;;;;;18.00;6.75;;;;;;;3.34;99.48;99356.97;5046079;28;20103;-59
2023/04/20 04:28:59;;;;;;;11.65;6.88;;;;;;;3.21;98.60;99350.53;5051729;28;20414;-59
2023/04/20 04:31:27;;;;;;;10.00;6.65;;;;;;;3.19;99.08;99349.09;5070357;28;20654;-59
2023/04/20 04:33:59;;;;;;;9.00;6.32;;;;;;;3.26;100.00;99354.47;5054192;28;20052;-59
2023/04/20 04:36:35;;;;;;;11.73;6.60;;;;;;;3.23;98.52;99353.84;5054354;28;20128;-59
2023/04/20 04:39:03;;;;;;;10.50;6.55;;;;;;;3.08;97.34;99355.75;5059655;28;20044;-59
2023/04/20 04:41:30;;;;;;;9.57;6.30;;;;;;;3.24;98.67;99344.88;5053707;28;20530;-60
2023/04/20 04:44:10;;;;;;;13.40;6.30;;;;;;;3.25;100.00;99351.00;5070202;28;20043;-59
2023/04/20 04:46:39;;;;;;;9.13;6.63;;;;;;;3.44;100.00;99341.53;5059866;28;20494;-59
2023/04/20 04:49:06;;;;;;;12.35;6.32;;;;;;;3.23;99.70;99345.88;5049326;28;20079;-59
2023/04/20 04:51:34;;;;;;;14.70;6.88;;;;;;;3.17;100.00;99344.00;5058521;28;20082;-59
2023/04/20 04:54:01;;;;;;;12.15;7.05;;;;;;;3.24;100.00;99336.94;5048255;28;20521;-59
2023/04/20 04:56:28;;;;;;;9.50;6.53;;;;;;;3.36;100.00;99339.06;5058652;28;20041;-59
2023/04/20 04:58:55;;;;;;;18.88;7.25;;;;;;;3.16;100.00;99345.00;5053824;28;20365;-59
2023/04/20 05:01:23;;;;;;;18.10;7.55;;;;;;;3.17;100.00;99345.81;5050032;28;20402;-59
2023/04/20 05:03:50;;;;;;;14.38;8.13;;;;;;;3.24;100.00;99339.59;5073347;28;20471;-59
2023/04/20 05:06:18;;;;;;;11.77;7.18;;;;;;;3.32;100.00;99340.44;5052303;28;20045;-59
2023/04/20 05:08:46;;;;;;;11.68;7.80;;;;;;;3.12;100.00;99351.72;5050772;28;20045;-60
2023/04/20 05:11:13;;;;;;;13.52;7.93;;;;;;;3.18;100.00;99342.19;5053054;28;20701;-59
2023/04/20 05:13:40;;;;;;;10.70;7.68;;;;;;;3.29;100.00;99338.19;5051150;28;20048;-61
2023/04/20 05:16:07;;;;;;;12.80;7.38;;;;;;;3.24;100.00;99339.59;5052155;28;20056;-58
2023/04/20 05:18:36;;;;;;;12.10;7.40;;;;;;;3.19;100.00;99338.50;5050483;28;20063;-58
2023/04/20 05:21:03;;;;;;;11.88;7.68;;;;;;;3.37;100.00;99330.91;5054063;28;20444;-58
2023/04/20 05:23:30;;;;;;;12.73;7.55;;;;;;;3.41;100.00;99334.00;5049870;28;20060;-61
2023/04/20 05:25:57;;;;;;;12.77;7.28;;;;;;;3.47;100.00;99338.53;5050488;28;20033;-60
2023/04/20 05:28:24;;;;;;;11.25;6.65;;;;;;;3.27;100.00;99334.91;5050874;28;20076;-61
2023/04/20 05:30:53;;;;;;;12.07;7.28;;;;;;;3.28;100.00;99337.38;5055390;28;20408;-60
2023/04/20 05:33:20;;;;;;;11.60;6.97;;;;;;;3.32;100.00;99328.03;5050847;28;20053;-60
2023/04/20 05:35:50;;;;;;;13.65;7.82;;;;;;;3.32;100.00;99337.78;5046816;28;20064;-60
2023/04/20 05:38:17;;;;;;;12.73;7.03;;;;;;;3.39;100.00;99328.06;5050689;28;20571;-60
2023/04/20 05:40:44;;;;;;;14.65;8.20;;;;;;;3.31;100.00;99325.56;5052990;28;20037;-61
2023/04/20 05:43:11;;;;;;;10.68;7.20;;;;;;;3.32;100.00;99327.19;5057784;28;20049;-60
2023/04/20 05:45:38;;;;;;;11.82;7.43;;;;;;;3.49;100.00;99327.72;5054933;28;20507;-60
2023/04/20 05:48:05;;;;;;;10.85;6.95;;;;;;;3.41;100.00;99318.91;5053894;28;20064;-59
2023/04/20 05:50:33;;;;;;;11.43;7.50;;;;;;;3.43;100.00;99319.53;5055551;28;20037;-59
2023/04/20 05:53:01;;;;;;;11.23;7.35;;;;;;;3.51;100.00;99329.16;5048337;28;20452;-60
2023/04/20 05:55:28;;;;;;;14.30;7.68;;;;;;;3.42;100.00;99327.66;5048673;28;20060;-60
2023/04/20 05:57:55;;;;;;;13.95;6.82;;;;;;;3.31;100.00;99325.56;5051605;28;20487;-60
2023/04/20 06:00:23;;;;;;;12.27;7.00;;;;;;;3.44;100.00;99320.34;5055805;28;20056;-60
2023/04/20 06:02:50;;;;;;;11.65;7.13;;;;;;;3.34;100.00;99319.88;5058859;28;20044;-60
2023/04/20 06:05:17;;;;;;;12.95;7.43;;;;;;;3.52;100.00;99320.22;5054361;28;20041;-60
2023/04/20 06:07:44;;;;;;;15.77;7.32;;;;;;;3.54;100.00;99326.13;5055307;28;20055;-61
2023/04/20 06:10:12;;;;;;;12.00;7.53;;;;;;;3.53;100.00;99324.50;5055668;28;20041;-60
2023/04/20 06:12:39;;;;;;;14.13;7.75;;;;;;;3.53;100.00;99329.78;5054511;28;20565;-60
2023/04/20 06:15:09;;;;;;;13.02;7.32;;;;;;;3.74;100.00;99328.06;5062100;28;20140;-60
2023/04/20 06:17:39;;;;;;;13.85;7.20;;;;;;;3.66;100.00;99327.22;5054111;28;20103;-60
2023/04/20 06:20:07;;;;;;;11.95;7.97;;;;;;;3.64;100.00;99326.63;5055122;28;20041;-60
2023/04/20 06:22:35;;;;;;;12.30;7.72;;;;;;;3.73;100.00;99323.78;5056146;28;20045;-59
2023/04/20 06:25:02;;;;;;;12.90;7.97;;;;;;;3.69;100.00;99320.69;5057517;28;20041;-59
2023/04/20 06:27:30;;;;;;;12.48;7.53;;;;;;;3.77;100.00;99320.56;5056066;28;20090;-59
2023/04/20 06:29:57;;;;;;;12.35;7.95;;;;;;;3.70;100.00;99321.53;5059403;28;20052;-59
2023/04/20 06:32:24;;;;;;;11.52;7.20;;;;;;;3.77;100.00;99314.41;5058465;28;20040;-60
2023/04/20 06:34:52;;;;;;;15.45;7.72;;;;;;;3.95;100.00;99317.38;5055195;28;20045;-60
2023/04/20 06:37:19;;;;;;;11.70;8.13;;;;;;;3.68;100.00;99316.44;5059752;28;20041;-59
2023/04/20 06:39:46;;;;;;;13.23;8.63;;;;;;;3.62;100.00;99317.19;5065086;28;20094;-59
2023/04/20 06:42:14;;;;;;;11.15;8.13;;;;;;;3.77;100.00;99311.75;5057955;28;20164;-60
2023/04/20 06:44:43;;;;;;;14.73;8.35;;;;;;;3.79;100.00;99309.75;5054323;28;20041;-60
2023/04/20 06:47:10;;;;;;;12.55;8.25;;;;;;;3.73;100.00;99307.91;5054783;28;20091;-60
2023/04/20 06:49:38;;;;;;;13.35;8.10;;;;;;;3.75;100.00;99313.81;5052627;28;20037;-61
2023/04/20 06:52:07;;;;;;;11.55;8.02;;;;;;;3.89;100.00;99312.84;5062861;28;20040;-60
2023/04/20 06:54:35;;;;;;;12.93;8.35;;;;;;;3.78;100.00;99316.06;5055943;28;20040;-60
2023/04/20 06:57:05;;;;;;;13.18;7.97;;;;;;;3.69;100.00;99312.75;5060908;28;20041;-60
2023/04/20 06:59:32;;;;;;;14.43;8.35;;;;;;;3.71;100.00;99315.22;5058841;28;20032;-60
2023/04/20 07:02:02;;;;;;;17.40;8.38;;;;;;;3.67;100.00;99312.16;5056096;28;20044;-61
2023/04/20 07:04:33;;;;;;;15.27;9.55;;;;;;;3.63;100.00;99316.19;5056172;28;20395;-59
2023/04/20 07:07:06;;;;;;;16.70;9.02;;;;;;;3.63;100.00;99319.66;5057502;28;20114;-61
2023/04/20 07:09:34;;;;;;;14.60;8.43;;;;;;;3.85;100.00;99304.47;5060824;28;20048;-60
2023/04/20 07:12:01;;;;;;;13.57;8.65;;;;;;;3.86;100.00;99307.94;5055422;28;20052;-60
2023/04/20 07:14:30;;;;;;;14.20;8.45;;;;;;;3.95;100.00;99309.44;5051386;28;20044;-60
2023/04/20 07:17:07;;;;;;;13.85;8.55;;;;;;;3.92;100.00;99301.03;5056785;28;20047;-60
2023/04/20 07:19:38;;;;;;;14.27;9.15;;;;;;;3.93;100.00;99308.81;5054894;28;20045;-60
2023/04/20 07:22:08;;;;;;;15.52;8.38;;;;;;;3.80;100.00;99308.75;5065677;28;20119;-60
2023/04/20 07:24:38;;;;;;;13.45;8.75;;;;;;;3.70;100.00;99301.16;5065057;28;20046;-60
2023/04/20 07:27:21;;;;;;;13.32;8.68;;;;;;;3.71;100.00;99300.13;5057290;28;20048;-60
2023/04/20 07:29:55;;;;;;;14.13;8.30;;;;;;;3.43;100.00;99302.81;5054315;28;20121;-60
2023/04/20 07:32:24;;;;;;;15.63;9.48;;;;;;;3.59;100.00;99297.19;5054916;28;20040;-60
2023/04/20 07:34:58;;;;;;;13.13;9.15;;;;;;;3.64;100.00;99296.63;5056033;28;20090;-59
2023/04/20 07:37:32;;;;;;;14.60;9.73;;;;;;;3.66;100.00;99299.91;5053897;28;20098;-61
2023/04/20 07:39:59;;;;;;;15.65;8.77;;;;;;;3.85;100.00;99298.38;5051251;28;20036;-60
2023/04/20 07:42:27;;;;;;;24.00;10.52;;;;;;;3.93;100.00;99298.19;5059213;28;20040;-63
2023/04/20 07:45:07;;;;;;;19.08;11.05;;;;;;;3.95;100.00;99296.16;5052029;28;20044;-61
2023/04/20 07:47:36;;;;;;;18.15;13.18;;;;;;;3.96;100.00;99302.28;5053332;28;20041;-59
2023/04/20 07:50:03;;;;;;;19.80;9.88;;;;;;;3.95;100.00;99301.47;5056458;28;20082;-60
2023/04/20 07:52:32;;;;;;;12.48;8.65;;;;;;;3.66;100.00;99298.06;5032403;28;20068;-59
2023/04/20 07:55:02;;;;;;;12.15;8.02;;;;;;;3.57;100.00;99304.56;5036824;28;20056;-59
2023/04/20 07:57:36;;;;;;;11.75;8.52;;;;;;;3.60;100.00;99306.81;5052678;28;20049;-59
2023/04/20 08:00:11;;;;;;;22.60;12.60;;;;;;;3.67;100.00;99310.31;5046784;28;20045;-59
2023/04/20 08:02:46;;;;;;;15.57;9.40;;;;;;;3.71;100.00;99305.44;5054475;28;20041;-61
2023/04/20 08:05:23;;;;;;;11.05;7.50;;;;;;;3.47;100.00;99309.38;5051656;28;20072;-61
2023/04/20 08:07:50;;;;;;;17.48;8.27;;;;;;;3.60;100.00;99311.28;5050501;28;20061;-58
2023/04/20 08:10:19;;;;;;;13.07;8.75;;;;;;;3.73;100.00;99305.25;5052905;28;20139;-60
2023/04/20 08:12:46;;;;;;;14.32;9.50;;;;;;;3.75;100.00;99301.38;5052561;28;20040;-58
2023/04/20 08:15:13;;;;;;;14.00;8.82;;;;;;;3.82;100.00;99304.88;5057661;28;20168;-58
2023/04/20 08:17:40;;;;;;;18.27;9.45;;;;;;;3.60;100.00;99306.00;5053499;28;20039;-58
2023/04/20 08:20:10;;;;;;;13.60;8.40;;;;;;;3.54;100.00;99306.75;5050815;28;20043;-59
2023/04/20 08:22:37;;;;;;;13.65;9.57;;;;;;;3.58;100.00;99306.19;5054115;28;20049;-59
2023/04/20 08:25:05;;;;;;;14.75;9.40;;;;;;;3.67;100.00;99304.19;5054926;28;20093;-58
2023/04/20 08:27:36;;;;;;;14.00;10.10;;;;;;;3.76;100.00;99302.19;5051972;28;20072;-59
2023/04/20 08:30:04;;;;;;;14.30;9.50;;;;;;;3.81;100.00;99305.06;5058242;28;20147;-60
2023/04/20 08:32:33;;;;;;;19.10;10.00;;;;;;;3.79;100.00;99302.59;5050734;28;20041;-59
2023/04/20 08:35:00;;;;;;;17.45;10.07;;;;;;;3.78;100.00;99305.47;5051864;28;20048;-61
2023/04/20 08:37:28;;;;;;;13.30;8.95;;;;;;;3.77;100.00;99302.00;5055222;28;20044;-58
2023/04/20 08:39:55;;;;;;;13.82;9.05;;;;;;;3.83;100.00;99300.41;5056750;28;20041;-59
2023/04/20 08:42:22;;;;;;;14.85;9.40;;;;;;;4.11;100.00;99301.13;5051425;28;20441;-58
2023/04/20 08:44:49;;;;;;;12.45;9.40;;;;;;;3.88;100.00;99300.63;5058980;28;20047;-58
2023/04/20 08:47:18;;;;;;;16.10;9.20;;;;;;;4.07;100.00;99301.72;5059978;28;20045;-58
2023/04/20 08:49:45;;;;;;;13.52;9.13;;;;;;;3.97;100.00;99294.13;5052153;28;20067;-58
2023/04/20 08:52:12;;;;;;;13.23;8.45;;;;;;;4.22;100.00;99291.78;5053878;28;20098;-58
2023/04/20 08:54:41;;;;;;;14.18;8.52;;;;;;;4.00;100.00;99292.94;5050869;28;20050;-58
2023/04/20 08:57:08;;;;;;;11.88;9.02;;;;;;;3.88;100.00;99290.00;5055334;28;20372;-58
2023/04/20 08:59:36;;;;;;;13.70;8.20;;;;;;;4.14;100.00;99291.13;5057760;28;20383;-59
2023/04/20 09:02:11;;;;;;;10.05;6.97;;;;;;;4.32;100.00;99283.44;5053288;28;20313;-58
2023/04/20 09:04:38;;;;;;;13.43;8.77;;;;;;;4.07;100.00;99286.63;5054264;28;20033;-59
2023/04/20 09:07:06;;;;;;;14.75;9.18;;;;;;;4.04;100.00;99283.53;5049693;28;20041;-59
2023/04/20 09:09:33;;;;;;;12.63;8.50;;;;;;;4.35;100.00;99285.69;5058771;28;20053;-58
2023/04/20 09:12:02;;;;;;;11.88;7.88;;;;;;;4.06;100.00;99279.66;5054253;28;21208;-60
2023/04/20 09:14:30;;;;;;;12.48;8.23;;;;;;;4.19;100.00;99281.53;5054511;28;20051;-60
2023/04/20 09:17:00;;;;;;;10.93;7.57;;;;;;;4.03;100.00;99287.22;5057455;28;21027;-60
2023/04/20 09:19:27;;;;;;;;;;;;;;;3.96;100.00;99291.69;5055690;28;20041;-58
2023/04/20 09:21:57;;;;;;;9.00;5.97;;;;;;;3.86;100.00;99289.38;5054471;28;19929;-60
2023/04/20 09:24:31;;;;;;;9.98;6.13;;;;;;;3.90;100.00;99298.59;5051214;28;20076;-60
2023/04/20 09:26:58;;;;;;;11.00;6.57;;;;;;;4.13;100.00;99302.75;5050129;28;20495;-60
2023/04/20 09:29:26;;;;;;;7.57;5.47;;;;;;;4.29;100.00;99303.25;5052331;28;20045;-60
2023/04/20 09:31:53;;;;;;;7.82;5.80;;;;;;;4.53;100.00;99296.53;5049605;28;20132;-61
2023/04/20 09:34:20;;;;;;;10.65;5.93;;;;;;;4.65;100.00;99304.72;5051092;28;20283;-60
2023/04/20 09:36:49;;;;;;;7.78;5.63;;;;;;;4.57;100.00;99290.81;5056450;28;20152;-61
2023/04/20 09:39:17;;;;;;;8.10;5.72;;;;;;;4.42;100.00;99294.50;5060866;28;20102;-58
2023/04/20 09:41:44;;;;;;;7.05;5.00;;;;;;;4.40;100.00;99296.53;5051483;28;20268;-59
2023/04/20 09:44:15;;;;;;;7.15;5.13;;;;;;;4.55;100.00;99296.34;5052095;28;20040;-59
2023/04/20 09:46:43;;;;;;;6.35;4.65;;;;;;;4.47;100.00;99294.69;5079366;28;20479;-59
2023/04/20 09:49:11;;;;;;;6.03;4.28;;;;;;;4.41;100.00;99303.44;5061860;28;20072;-59
2023/04/20 09:51:40;;;;;;;4.80;3.45;;;;;;;4.43;100.00;99298.75;5060371;28;20495;-61
2023/04/20 09:54:07;;;;;;;5.75;4.28;;;;;;;4.50;100.00;99299.59;5052256;28;20045;-59
2023/04/20 09:56:35;;;;;;;5.93;4.03;;;;;;;4.65;100.00;99301.28;5054951;28;20056;-59
2023/04/20 09:59:02;;;;;;;9.48;4.50;;;;;;;4.81;100.00;99298.19;5060621;28;20419;-60
2023/04/20 10:01:30;;;;;;;6.45;4.50;;;;;;;5.00;100.00;99298.44;5061181;28;20045;-59
2023/04/20 10:03:59;;;;;;;5.85;4.43;;;;;;;5.06;98.73;99297.59;5062367;28;20048;-59
2023/04/20 10:06:27;;;;;;;6.22;4.25;;;;;;;5.27;98.86;99307.22;5049121;28;20041;-59
2023/04/20 10:08:54;;;;;;;6.00;4.75;;;;;;;5.35;99.30;99307.81;5057960;28;20044;-59
2023/04/20 10:11:28;;;;;;;7.15;4.43;;;;;;;5.15;99.10;99299.03;5055999;28;20051;-59
2023/04/20 10:13:55;;;;;;;5.57;4.10;;;;;;;5.46;98.19;99306.34;5056969;28;20407;-59
2023/04/20 10:16:23;;;;;;;6.38;4.75;;;;;;;5.41;96.63;99300.84;5055795;28;20051;-59
2023/04/20 10:18:57;;;;;;;5.90;4.50;;;;;;;5.26;95.97;99302.91;5056612;28;20114;-59
2023/04/20 10:21:26;;;;;;;6.53;4.80;;;;;;;5.17;98.37;99299.66;5057046;28;20037;-59
2023/04/20 10:23:54;;;;;;;7.18;5.03;;;;;;;5.35;99.39;99301.69;5061726;28;20120;-59
2023/04/20 10:26:21;;;;;;;5.85;4.18;;;;;;;5.47;94.68;99297.38;5057866;28;20037;-59
2023/04/20 10:28:48;;;;;;;8.77;5.80;;;;;;;5.68;95.22;99295.47;5057165;28;20045;-59
2023/04/20 10:31:19;;;;;;;;;;;;;;;5.49;95.17;99294.47;5058391;28;20041;-59
2023/04/20 10:33:53;;;;;;;6.82;4.97;;;;;;;5.84;93.56;99285.19;5063048;28;19928;-60
2023/04/20 10:36:26;;;;;;;10.27;5.28;;;;;;;6.11;93.95;99287.75;5059260;28;20162;-59
2023/04/20 10:38:54;;;;;;;7.60;5.90;;;;;;;5.54;89.43;99279.56;5060141;28;20032;-59
2023/04/20 10:41:21;;;;;;;8.65;5.97;;;;;;;5.97;92.34;99280.88;5057770;28;20075;-59
2023/04/20 10:43:48;;;;;;;6.78;5.38;;;;;;;5.93;90.36;99282.28;5053895;28;20095;-59
2023/04/20 10:46:16;;;;;;;5.82;4.63;;;;;;;5.49;90.17;99284.69;5056485;28;20503;-59
2023/04/20 10:48:51;;;;;;;8.68;6.15;;;;;;;5.63;91.98;99280.94;5061924;28;20064;-59
2023/04/20 10:51:18;;;;;;;8.68;6.50;;;;;;;6.08;91.38;99284.72;5059252;28;20310;-59
2023/04/20 10:53:46;;;;;;;8.75;6.50;;;;;;;6.38;90.64;99279.66;5055063;28;20413;-59
2023/04/20 10:56:13;;;;;;;11.38;8.13;;;;;;;6.41;89.86;99280.03;5046982;28;20048;-59
2023/04/20 10:58:41;;;;;;;8.60;6.47;;;;;;;6.12;87.91;99280.63;5049920;28;20053;-59
2023/04/20 11:01:09;;;;;;;7.72;5.35;;;;;;;6.02;88.75;99278.41;5054900;28;20122;-59
2023/04/20 11:03:36;;;;;;;8.00;6.05;;;;;;;6.11;87.28;99282.44;5049190;28;20132;-59
2023/04/20 11:06:03;;;;;;;9.45;6.75;;;;;;;6.42;88.55;99263.03;5052484;28;20140;-59
2023/04/20 11:08:40;;;;;;;9.30;6.40;;;;;;;6.56;84.32;99269.09;5054902;28;20632;-59
2023/04/20 11:11:19;;;;;;;10.57;7.03;;;;;;;6.56;86.68;99269.09;5047141;28;20388;-59
2023/04/20 11:13:46;;;;;;;10.60;6.78;;;;;;;6.85;84.00;99264.19;5058041;28;20048;-60
2023/04/20 11:16:13;;;;;;;8.82;6.45;;;;;;;7.17;83.61;99266.78;5054717;28;20402;-60
2023/04/20 11:18:51;;;;;;;7.70;5.68;;;;;;;7.29;80.54;99260.50;5050216;28;20045;-59
2023/04/20 11:21:18;;;;;;;10.93;6.90;;;;;;;7.16;80.74;99252.63;5052786;28;20531;-59
2023/04/20 11:23:45;;;;;;;11.10;6.70;;;;;;;7.31;78.27;99241.59;5055364;28;20063;-59
2023/04/20 11:26:12;;;;;;;10.38;7.25;;;;;;;7.51;78.30;99247.56;5050917;28;20106;-59
2023/04/20 11:28:50;;;;;;;8.32;5.70;;;;;;;7.63;76.06;99241.47;5050979;28;20485;-60
2023/04/20 11:31:18;;;;;;;11.00;5.75;;;;;;;6.99;82.32;99233.72;5052592;28;20450;-59
2023/04/20 11:33:45;;;;;;;11.38;6.47;;;;;;;8.13;77.57;99238.59;5033996;28;20040;-59
2023/04/20 11:36:18;;;;;;;10.93;5.93;;;;;;;8.49;77.49;99234.25;5049939;28;20336;-60
2023/04/20 11:38:46;;;;;;;9.75;5.88;;;;;;;8.59;74.24;99242.50;5053342;28;20041;-59
2023/04/20 11:41:13;;;;;;;9.98;6.07;;;;;;;7.89;75.43;99227.84;5055609;28;20131;-60